createdAt,value
2022-08-30T00:02:25.335Z,95795.09
2022-08-30T00:04:55.164Z,95795.47
2022-08-30T00:07:23.415Z,95797.78
2022-08-30T00:09:51.620Z,95797.16
2022-08-30T00:12:20.921Z,95802.56
2022-08-30T00:14:49.516Z,95799.28
2022-08-30T00:17:17.186Z,95800.88
2022-08-30T00:19:47.110Z,95800.88
2022-08-30T00:22:14.770Z,95799.69
2022-08-30T00:24:42.989Z,95799.25
2022-08-30T00:27:10.634Z,95799.25
2022-08-30T00:29:39.026Z,95801.69
2022-08-30T00:32:06.785Z,95791.81
2022-08-30T00:34:35.339Z,95786.72
2022-08-30T00:37:04.512Z,95786.09
2022-08-30T00:39:33.085Z,95792.66
2022-08-30T00:42:00.792Z,95794.94
2022-08-30T00:44:28.823Z,95794.94
2022-08-30T00:46:56.551Z,95796.56
2022-08-30T00:49:25.779Z,95794.38
2022-08-30T00:51:54.382Z,95790.22
2022-08-30T00:54:26.350Z,95793.50
2022-08-30T00:56:54.493Z,95795.94
2022-08-30T00:59:24.328Z,95806.38
2022-08-30T01:01:52.252Z,95797.97
2022-08-30T01:04:21.541Z,95802.25
2022-08-30T01:06:49.235Z,95794.25
2022-08-30T01:09:17.428Z,95796.94
2022-08-30T01:11:47.644Z,95798.78
2022-08-30T01:14:17.195Z,95800.50
2022-08-30T01:16:47.046Z,95796.97
2022-08-30T01:19:26.867Z,95796.91
2022-08-30T01:22:01.204Z,95798.72
2022-08-30T01:24:31.862Z,95789.69
2022-08-30T01:26:59.990Z,95786.81
2022-08-30T01:29:29.298Z,95796.19
2022-08-30T01:31:57.168Z,95799.03
2022-08-30T01:34:25.619Z,95799.41
2022-08-30T01:36:53.307Z,95800.81
2022-08-30T01:39:21.221Z,95798.56
2022-08-30T01:41:50.258Z,95797.75
2022-08-30T01:44:17.979Z,95799.78
2022-08-30T01:46:48.976Z,95802.03
2022-08-30T01:49:27.472Z,95802.63
2022-08-30T01:52:01.083Z,95795.22
2022-08-30T01:54:33.216Z,95794.81
2022-08-30T01:57:07.996Z,95798.06
2022-08-30T01:59:35.664Z,95797.47
2022-08-30T02:02:04.716Z,95798.47
2022-08-30T02:04:32.666Z,95794.19
2022-08-30T02:07:01.388Z,95799.75
2022-08-30T02:09:29.071Z,95791.97
2022-08-30T02:11:57.930Z,95798.16
2022-08-30T02:14:27.558Z,95794.91
2022-08-30T02:16:55.591Z,95796.97
2022-08-30T02:19:23.342Z,95800.25
2022-08-30T02:21:51.878Z,95795.16
2022-08-30T02:24:19.604Z,95799.44
2022-08-30T02:26:48.894Z,95793.72
2022-08-30T02:29:16.932Z,95793.84
2022-08-30T02:31:46.705Z,95791.78
2022-08-30T02:34:14.838Z,95788.94
2022-08-30T02:36:42.568Z,95784.41
2022-08-30T02:39:11.319Z,95784.59
2022-08-30T02:41:40.299Z,95785.88
2022-08-30T02:44:09.150Z,95787.34
2022-08-30T02:46:36.825Z,95796.97
2022-08-30T02:49:30.389Z,95802.75
2022-08-30T02:51:56.863Z,95798.25
2022-08-30T02:54:24.643Z,95796.56
2022-08-30T02:56:52.954Z,95792.75
2022-08-30T02:59:20.984Z,95799.91
2022-08-30T03:01:49.325Z,95792.78
2022-08-30T03:04:19.003Z,95782.81
2022-08-30T03:06:54.923Z,95786.50
2022-08-30T03:09:22.578Z,95790.59
2022-08-30T03:11:50.563Z,95787.50
2022-08-30T03:14:18.268Z,95791.66
2022-08-30T03:16:46.362Z,95790.88
2022-08-30T03:19:14.140Z,95785.56
2022-08-30T03:21:43.548Z,95789.25
2022-08-30T03:24:13.565Z,95787.59
2022-08-30T03:26:46.021Z,95785.97
2022-08-30T03:29:14.219Z,95790.88
2022-08-30T03:31:52.663Z,95786.41
2022-08-30T03:34:22.135Z,95790.53
2022-08-30T03:36:52.150Z,95784.56
2022-08-30T03:39:20.891Z,95785.84
2022-08-30T03:41:48.888Z,95791.59
2022-08-30T03:44:17.167Z,95786.88
2022-08-30T03:46:45.543Z,95793.81
2022-08-30T03:49:13.218Z,95786.88
2022-08-30T03:51:41.206Z,95784.03
2022-08-30T03:54:10.559Z,95781.59
2022-08-30T03:56:39.176Z,95786.50
2022-08-30T03:59:07.131Z,95786.94
2022-08-30T04:01:35.150Z,95793.50
2022-08-30T04:04:03.223Z,95791.06
2022-08-30T04:06:32.136Z,95788.78
2022-08-30T04:08:59.799Z,95783.72
2022-08-30T04:11:29.415Z,95789.06
2022-08-30T04:13:57.106Z,95790.25
2022-08-30T04:16:26.801Z,95796.00
2022-08-30T04:18:54.591Z,95800.28
2022-08-30T04:21:23.396Z,95806.22
2022-08-30T04:23:51.017Z,95811.56
2022-08-30T04:26:19.775Z,95807.88
2022-08-30T04:28:48.855Z,95806.41
2022-08-30T04:31:19.300Z,95804.19
2022-08-30T04:33:47.055Z,95801.09
2022-08-30T04:36:15.383Z,95801.69
2022-08-30T04:38:43.798Z,95807.44
2022-08-30T04:41:13.228Z,95807.00
2022-08-30T04:43:41.085Z,95808.03
2022-08-30T04:46:10.600Z,95810.69
2022-08-30T04:48:39.638Z,95813.53
2022-08-30T04:51:08.637Z,95815.78
2022-08-30T04:53:36.976Z,95815.97
2022-08-30T04:56:08.913Z,95828.44
2022-08-30T04:58:37.152Z,95820.63
2022-08-30T05:01:05.466Z,95822.47
2022-08-30T05:03:35.003Z,95826.97
2022-08-30T05:06:02.631Z,95828.75
2022-08-30T05:08:30.589Z,95837.38
2022-08-30T05:10:58.231Z,95832.22
2022-08-30T05:13:35.187Z,95837.53
2022-08-30T05:16:07.910Z,95840.19
2022-08-30T05:18:38.272Z,95829.75
2022-08-30T05:21:08.771Z,95838.72
2022-08-30T05:23:37.299Z,95839.09
2022-08-30T05:26:09.058Z,95846.84
2022-08-30T05:28:37.219Z,95840.25
2022-08-30T05:31:14.347Z,95837.72
2022-08-30T05:33:43.796Z,95843.41
2022-08-30T05:36:12.747Z,95851.00
2022-08-30T05:38:40.801Z,95845.84
2022-08-30T05:41:10.935Z,95848.88
2022-08-30T05:43:39.127Z,95862.72
2022-08-30T05:46:09.186Z,95852.66
2022-08-30T05:48:37.964Z,95860.03
2022-08-30T05:51:11.367Z,95860.44
2022-08-30T05:53:40.088Z,95857.16
2022-08-30T05:56:10.496Z,95862.34
2022-08-30T05:58:38.913Z,95862.50
2022-08-30T06:01:07.052Z,95855.03
2022-08-30T06:03:35.270Z,95862.28
2022-08-30T06:06:03.641Z,95854.09
2022-08-30T06:08:32.636Z,95857.47
2022-08-30T06:11:00.249Z,95857.47
2022-08-30T06:13:28.604Z,95852.78
2022-08-30T06:15:56.318Z,95857.22
2022-08-30T06:18:28.646Z,95857.84
2022-08-30T06:20:56.525Z,95860.13
2022-08-30T06:23:24.569Z,95854.41
2022-08-30T06:25:53.595Z,95857.47
2022-08-30T06:28:21.643Z,95858.69
2022-08-30T06:30:49.331Z,95860.56
2022-08-30T06:33:17.284Z,95867.81
2022-08-30T06:35:58.452Z,95859.34
2022-08-30T06:38:28.107Z,95855.06
2022-08-30T06:40:57.073Z,95859.59
2022-08-30T06:43:25.035Z,95854.03
2022-08-30T06:45:53.213Z,95861.81
2022-08-30T06:48:20.854Z,95857.72
2022-08-30T06:50:54.329Z,95859.72
2022-08-30T06:53:22.888Z,95866.09
2022-08-30T06:55:58.361Z,95859.69
2022-08-30T06:58:26.330Z,95851.34
2022-08-30T07:00:54.432Z,95854.81
2022-08-30T07:03:22.203Z,95853.22
2022-08-30T07:05:50.515Z,95852.84
2022-08-30T07:08:18.973Z,95849.06
2022-08-30T07:10:47.515Z,95847.72
2022-08-30T07:13:17.171Z,95857.09
2022-08-30T07:15:46.721Z,95847.09
2022-08-30T07:18:32.549Z,95839.63
2022-08-30T07:21:06.805Z,95838.16
2022-08-30T07:23:34.710Z,95838.31
2022-08-30T07:26:06.112Z,95849.38
2022-08-30T07:28:37.927Z,95848.47
2022-08-30T07:33:40.383Z,95838.06
2022-08-30T07:36:09.495Z,95836.06
2022-08-30T07:38:37.131Z,95836.75
2022-08-30T07:41:05.804Z,95836.81
2022-08-30T07:43:38.773Z,95845.59
2022-08-30T07:46:09.140Z,95846.50
2022-08-30T07:48:36.957Z,95841.56
2022-08-30T07:51:05.779Z,95848.91
2022-08-30T07:53:33.425Z,95846.13
2022-08-30T07:56:01.931Z,95844.06
2022-08-30T07:58:33.394Z,95844.25
2022-08-30T08:01:02.399Z,95847.91
2022-08-30T08:03:30.651Z,95849.91
2022-08-30T08:05:58.845Z,95860.81
2022-08-30T08:08:27.287Z,95859.25
2022-08-30T08:10:55.033Z,95859.59
2022-08-30T08:13:23.517Z,95868.59
2022-08-30T08:15:56.043Z,95860.28
2022-08-30T08:18:25.018Z,95870.31
2022-08-30T08:20:53.164Z,95857.72
2022-08-30T08:23:22.690Z,95865.34
2022-08-30T08:25:51.177Z,95864.03
2022-08-30T08:28:19.227Z,95868.91
2022-08-30T08:30:48.544Z,95867.88
2022-08-30T08:33:16.308Z,95868.94
2022-08-30T08:35:45.610Z,95864.31
2022-08-30T08:38:13.308Z,95861.03
2022-08-30T08:40:49.818Z,95855.38
2022-08-30T08:43:20.365Z,95861.75
2022-08-30T08:45:56.605Z,95864.91
2022-08-30T08:48:51.941Z,95866.44
2022-08-30T08:51:42.415Z,95858.75
2022-08-30T08:54:14.267Z,95849.38
2022-08-30T08:56:42.127Z,95849.03
2022-08-30T08:59:11.533Z,95844.81
2022-08-30T09:01:40.592Z,95847.41
2022-08-30T09:04:12.851Z,95846.69
2022-08-30T09:06:53.316Z,95846.81
2022-08-30T09:09:24.913Z,95838.34
2022-08-30T09:11:52.640Z,95842.56
2022-08-30T09:14:30.030Z,95834.13
2022-08-30T09:17:01.115Z,95837.00
2022-08-30T09:19:41.916Z,95828.78
2022-08-30T09:22:23.118Z,95821.66
2022-08-30T09:24:53.588Z,95831.41
2022-08-30T09:27:25.342Z,95826.25
2022-08-30T09:29:57.266Z,95832.41
2022-08-30T09:32:35.250Z,95821.03
2022-08-30T09:35:04.364Z,95821.44
2022-08-30T09:37:37.743Z,95809.78
2022-08-30T09:40:16.359Z,95814.06
2022-08-30T09:43:01.241Z,95817.78
2022-08-30T09:45:34.825Z,95812.84
2022-08-30T09:48:21.543Z,95816.00
2022-08-30T09:50:57.673Z,95801.78
2022-08-30T09:53:35.323Z,95805.00
2022-08-30T09:56:10.241Z,95794.22
2022-08-30T09:58:58.581Z,95793.94
2022-08-30T10:01:31.776Z,95789.06
2022-08-30T10:04:06.748Z,95795.91
2022-08-30T10:06:43.065Z,95794.84
2022-08-30T10:09:24.086Z,95793.50
2022-08-30T10:12:02.354Z,95792.63
2022-08-30T10:14:42.698Z,95785.84
2022-08-30T10:17:17.593Z,95779.88
2022-08-30T10:20:08.273Z,95776.91
2022-08-30T10:22:41.783Z,95773.16
2022-08-30T10:25:16.143Z,95779.16
2022-08-30T10:27:48.904Z,95777.16
2022-08-30T10:30:19.339Z,95769.84
2022-08-30T10:32:53.215Z,95771.56
2022-08-30T10:35:24.183Z,95762.69
2022-08-30T10:37:57.036Z,95753.91
2022-08-30T10:40:47.108Z,95754.81
2022-08-30T10:43:23.287Z,95750.38
2022-08-30T10:45:54.442Z,95747.47
2022-08-30T10:48:26.257Z,95747.91
2022-08-30T10:51:00.466Z,95754.44
2022-08-30T10:53:33.095Z,95751.56
2022-08-30T10:56:07.339Z,95745.91
2022-08-30T10:58:37.494Z,95750.28
2022-08-30T11:01:28.588Z,95755.63
2022-08-30T11:04:33.924Z,95749.25
2022-08-30T11:07:13.511Z,95755.84
2022-08-30T11:09:53.356Z,95757.09
2022-08-30T11:12:32.213Z,95760.59
2022-08-30T11:15:01.352Z,95763.81
2022-08-30T11:17:32.823Z,95761.06
2022-08-30T11:20:03.213Z,95752.41
2022-08-30T11:22:38.666Z,95754.56
2022-08-30T11:25:12.342Z,95746.69
2022-08-30T11:27:48.756Z,95750.97
2022-08-30T11:30:57.224Z,95750.59
2022-08-30T11:33:42.204Z,95764.13
2022-08-30T11:37:01.890Z,95752.88
2022-08-30T11:40:01.831Z,95750.41
2022-08-30T11:42:38.690Z,95745.38
2022-08-30T11:45:46.139Z,95753.06
2022-08-30T11:48:53.882Z,95751.34
2022-08-30T11:51:50.837Z,95753.56
2022-08-30T11:54:42.415Z,95742.06
2022-08-30T11:57:18.865Z,95754.00
2022-08-30T11:59:58.354Z,95749.63
2022-08-30T12:02:49.083Z,95742.97
2022-08-30T12:05:51.205Z,95749.16
2022-08-30T12:09:02.935Z,95740.41
2022-08-30T12:11:57.066Z,95738.81
2022-08-30T12:14:40.848Z,95740.69
2022-08-30T12:17:33.779Z,95738.78
2022-08-30T12:20:04.780Z,95735.63
2022-08-30T12:22:38.089Z,95741.50
2022-08-30T12:25:18.315Z,95734.94
2022-08-30T12:27:46.863Z,95737.66
2022-08-30T12:30:15.330Z,95733.25
2022-08-30T12:32:48.761Z,95727.94
2022-08-30T12:35:23.262Z,95722.88
2022-08-30T12:38:00.550Z,95718.16
2022-08-30T12:40:31.333Z,95719.09
2022-08-30T12:43:01.291Z,95719.19
2022-08-30T12:45:34.425Z,95714.63
2022-08-30T12:48:06.291Z,95714.72
2022-08-30T12:50:38.668Z,95708.28
2022-08-30T12:53:13.578Z,95709.50
2022-08-30T12:55:52.792Z,95707.72
2022-08-30T12:58:39.743Z,95707.72
2022-08-30T13:01:20.328Z,95696.03
2022-08-30T13:04:02.213Z,95703.06
2022-08-30T13:06:44.827Z,95702.56
2022-08-30T13:09:24.770Z,95696.34
2022-08-30T13:11:52.662Z,95692.78
2022-08-30T13:14:31.214Z,95691.03
2022-08-30T13:17:10.200Z,95683.69
2022-08-30T13:19:41.079Z,95680.28
2022-08-30T13:22:25.986Z,95679.59
2022-08-30T13:24:55.407Z,95672.13
2022-08-30T13:27:24.217Z,95669.19
2022-08-30T13:29:52.074Z,95666.22
2022-08-30T13:32:20.496Z,95671.13
2022-08-30T13:34:48.211Z,95667.38
2022-08-30T13:40:10.506Z,95659.16
2022-08-30T13:42:40.413Z,95663.56
2022-08-30T13:45:40.911Z,95654.81
2022-08-30T13:47:56.747Z,95659.03
2022-08-30T13:50:24.474Z,95647.25
2022-08-30T13:52:56.514Z,95650.06
2022-08-30T13:55:24.243Z,95641.91
2022-08-30T13:57:53.961Z,95647.06
2022-08-30T14:00:22.675Z,95643.84
2022-08-30T14:02:55.098Z,95634.69
2022-08-30T14:11:05.341Z,95630.16
2022-08-30T14:13:33.957Z,95633.97
2022-08-30T14:18:56.167Z,95626.13
2022-08-30T14:21:25.045Z,95626.44
2022-08-30T14:23:54.275Z,95623.72
2022-08-30T14:26:25.291Z,95628.13
2022-08-30T14:28:54.215Z,95625.19
2022-08-30T14:31:22.107Z,95622.50
2022-08-30T14:33:50.062Z,95626.94
2022-08-30T14:36:18.068Z,95615.13
2022-08-30T14:38:45.892Z,95605.16
2022-08-30T14:41:15.364Z,95609.69
2022-08-30T14:43:42.998Z,95605.47
2022-08-30T14:46:12.314Z,95605.78
2022-08-30T14:48:41.613Z,95598.38
2022-08-30T14:51:16.674Z,95601.19
2022-08-30T14:53:45.269Z,95591.13
2022-08-30T14:56:19.645Z,95583.78
2022-08-30T14:58:48.997Z,95590.31
2022-08-30T15:01:16.744Z,95590.31
2022-08-30T15:03:44.997Z,95583.69
2022-08-30T15:06:13.271Z,95584.47
2022-08-30T15:08:41.487Z,95580.03
2022-08-30T15:11:11.858Z,95579.41
2022-08-30T15:13:41.258Z,95582.63
2022-08-30T15:16:15.497Z,95579.66
2022-08-30T15:18:43.865Z,95578.53
2022-08-30T15:21:11.831Z,95577.31
2022-08-30T15:23:40.207Z,95580.22
2022-08-30T15:26:09.744Z,95574.53
2022-08-30T15:28:37.896Z,95569.88
2022-08-30T15:31:09.458Z,95575.31
2022-08-30T15:33:37.524Z,95573.59
2022-08-30T15:36:06.305Z,95573.94
2022-08-30T15:38:33.947Z,95564.16
2022-08-30T15:41:04.458Z,95564.88
2022-08-30T15:43:32.479Z,95558.09
2022-08-30T15:46:19.755Z,95553.81
2022-08-30T15:48:49.287Z,95560.59
2022-08-30T15:51:17.685Z,95559.00
2022-08-30T15:53:46.023Z,95556.03
2022-08-30T15:56:15.304Z,95550.00
2022-08-30T15:58:43.503Z,95554.00
2022-08-30T16:01:13.299Z,95544.53
2022-08-30T16:03:41.900Z,95555.06
2022-08-30T16:06:16.457Z,95540.50
2022-08-30T16:08:44.438Z,95552.25
2022-08-30T16:11:16.571Z,95549.31
2022-08-30T16:13:50.255Z,95547.00
2022-08-30T16:16:19.901Z,95548.56
2022-08-30T16:18:53.850Z,95546.94
2022-08-30T16:21:26.514Z,95546.06
2022-08-30T16:23:56.419Z,95545.44
2022-08-30T16:26:26.030Z,95544.19
2022-08-30T16:28:54.647Z,95539.97
2022-08-30T16:31:24.019Z,95546.88
2022-08-30T16:33:53.015Z,95542.94
2022-08-30T16:36:23.234Z,95539.25
2022-08-30T16:38:55.959Z,95534.97
2022-08-30T16:41:26.160Z,95532.44
2022-08-30T16:43:54.776Z,95530.16
2022-08-30T16:46:27.806Z,95534.94
2022-08-30T16:48:57.528Z,95528.75
2022-08-30T16:51:29.634Z,95526.13
2022-08-30T16:53:59.139Z,95520.47
2022-08-30T16:56:29.879Z,95520.47
2022-08-30T16:59:01.993Z,95524.00
2022-08-30T17:01:34.647Z,95515.63
2022-08-30T17:04:03.582Z,95527.16
2022-08-30T17:06:33.569Z,95523.25
2022-08-30T17:09:03.525Z,95531.00
2022-08-30T17:11:33.323Z,95531.38
2022-08-30T17:14:01.691Z,95529.31
2022-08-30T17:16:30.240Z,95533.25
2022-08-30T17:18:59.778Z,95532.75
2022-08-30T17:21:29.668Z,95541.25
2022-08-30T17:24:02.595Z,95529.16
2022-08-30T17:26:32.440Z,95537.06
2022-08-30T17:29:00.523Z,95532.56
2022-08-30T17:31:30.893Z,95530.47
2022-08-30T17:34:03.174Z,95532.13
2022-08-30T17:36:37.075Z,95534.84
2022-08-30T17:39:10.965Z,95539.28
2022-08-30T17:41:40.107Z,95547.75
2022-08-30T17:44:13.322Z,95548.06
2022-08-30T17:46:41.121Z,95548.13
2022-08-30T17:49:10.437Z,95550.31
2022-08-30T17:51:41.119Z,95553.31
2022-08-30T17:54:11.954Z,95557.66
2022-08-30T17:56:39.880Z,95562.28
2022-08-30T17:59:09.208Z,95567.19
2022-08-30T18:01:37.999Z,95567.22
2022-08-30T18:04:06.658Z,95574.81
2022-08-30T18:06:34.909Z,95576.69
2022-08-30T18:09:03.277Z,95585.88
2022-08-30T18:11:32.622Z,95588.28
2022-08-30T18:14:00.731Z,95593.69
2022-08-30T18:16:28.414Z,95588.03
2022-08-30T18:18:57.483Z,95597.44
2022-08-30T18:21:44.729Z,95603.91
2022-08-30T18:24:12.753Z,95603.84
2022-08-30T18:26:43.132Z,95597.91
2022-08-30T18:29:12.006Z,95603.81
2022-08-30T18:31:39.767Z,95615.09
2022-08-30T18:34:12.260Z,95610.22
2022-08-30T18:36:40.565Z,95613.97
2022-08-30T18:39:09.559Z,95608.81
2022-08-30T18:41:42.203Z,95611.75
2022-08-30T18:44:27.341Z,95614.69
2022-08-30T18:46:57.100Z,95606.28
2022-08-30T18:49:25.758Z,95613.81
2022-08-30T18:51:53.677Z,95620.81
2022-08-30T18:54:22.338Z,95626.41
2022-08-30T18:56:50.783Z,95633.13
2022-08-30T18:59:21.182Z,95632.03
2022-08-30T19:01:49.653Z,95625.78
2022-08-30T19:04:22.451Z,95631.16
2022-08-30T19:06:58.283Z,95632.19
2022-08-30T19:09:26.757Z,95629.75
2022-08-30T19:11:54.947Z,95617.09
2022-08-30T19:14:24.266Z,95621.38
2022-08-30T19:16:56.255Z,95625.38
2022-08-30T19:19:24.515Z,95628.28
2022-08-30T19:21:52.633Z,95634.19
2022-08-30T19:24:20.537Z,95636.81
2022-08-30T19:26:49.106Z,95636.28
2022-08-30T19:29:16.997Z,95628.44
2022-08-30T19:31:46.109Z,95625.44
2022-08-30T19:34:13.769Z,95628.63
2022-08-30T19:36:41.470Z,95625.09
2022-08-30T19:39:09.939Z,95637.44
2022-08-30T19:41:38.210Z,95635.75
2022-08-30T19:44:07.002Z,95633.81
2022-08-30T19:46:34.768Z,95629.22
2022-08-30T19:49:07.017Z,95635.91
2022-08-30T19:51:34.666Z,95627.53
2022-08-30T19:54:03.564Z,95630.75
2022-08-30T19:56:31.366Z,95625.31
2022-08-30T19:58:59.593Z,95624.22
2022-08-30T20:01:33.368Z,95624.16
2022-08-30T20:04:02.612Z,95627.34
2022-08-30T20:06:32.353Z,95622.97
2022-08-30T20:09:00.705Z,95621.31
2022-08-30T20:11:29.492Z,95629.56
2022-08-30T20:13:58.519Z,95627.06
2022-08-30T20:16:33.198Z,95631.50
2022-08-30T20:19:06.785Z,95639.16
2022-08-30T20:21:36.739Z,95634.22
2022-08-30T20:24:09.612Z,95634.41
2022-08-30T20:26:37.890Z,95646.47
2022-08-30T20:29:07.424Z,95634.13
2022-08-30T20:31:36.050Z,95631.69
2022-08-30T20:34:04.891Z,95639.47
2022-08-30T20:36:33.603Z,95637.84
2022-08-30T20:39:04.476Z,95638.66
2022-08-30T20:41:32.244Z,95631.13
2022-08-30T20:44:01.839Z,95635.91
2022-08-30T20:46:33.477Z,95642.59
2022-08-30T20:49:03.574Z,95639.34
2022-08-30T20:51:31.225Z,95628.06
2022-08-30T20:54:04.854Z,95630.75
2022-08-30T20:56:34.298Z,95629.69
2022-08-30T20:59:03.575Z,95632.38
2022-08-30T21:01:32.153Z,95628.63
2022-08-30T21:04:00.137Z,95632.38
2022-08-30T21:06:27.898Z,95632.84
2022-08-30T21:08:55.659Z,95634.97
2022-08-30T21:11:26.436Z,95635.16
2022-08-30T21:13:54.379Z,95638.88
2022-08-30T21:16:22.263Z,95636.44
2022-08-30T21:18:50.323Z,95634.28
2022-08-30T21:21:21.416Z,95624.63
2022-08-30T21:23:49.459Z,95627.84
2022-08-30T21:26:18.674Z,95637.78
2022-08-30T21:28:48.499Z,95628.91
2022-08-30T21:31:18.464Z,95632.66
2022-08-30T21:33:48.246Z,95634.84
2022-08-30T21:36:33.793Z,95634.59
2022-08-30T21:39:01.919Z,95631.91
2022-08-30T21:41:31.432Z,95626.38
2022-08-30T21:44:02.886Z,95632.03
2022-08-30T21:46:32.233Z,95630.41
2022-08-30T21:49:01.915Z,95625.84
2022-08-30T21:51:32.938Z,95632.84
2022-08-30T21:54:02.294Z,95628.53
2022-08-30T21:56:30.246Z,95636.59
2022-08-30T21:58:57.920Z,95633.34
2022-08-30T22:01:29.128Z,95636.28
2022-08-30T22:03:59.309Z,95639.22
2022-08-30T22:06:30.695Z,95637.59
2022-08-30T22:09:01.065Z,95639.69
2022-08-30T22:11:31.031Z,95635.66
2022-08-30T22:13:59.523Z,95633.22
2022-08-30T22:16:29.864Z,95638.03
2022-08-30T22:18:58.582Z,95635.59
2022-08-30T22:21:28.446Z,95632.09
2022-08-30T22:23:56.810Z,95634.19
2022-08-30T22:26:25.513Z,95642.50
2022-08-30T22:28:54.729Z,95642.75
2022-08-30T22:31:23.652Z,95642.09
2022-08-30T22:33:55.170Z,95638.34
2022-08-30T22:36:32.175Z,95631.03
2022-08-30T22:39:01.952Z,95636.91
2022-08-30T22:41:33.936Z,95634.44
2022-08-30T22:44:03.381Z,95642.97
2022-08-30T22:46:33.808Z,95643.47
2022-08-30T22:49:04.353Z,95635.69
2022-08-30T22:51:32.112Z,95634.84
2022-08-30T22:54:01.159Z,95632.59
2022-08-30T22:56:29.724Z,95635.28
2022-08-30T22:58:58.115Z,95639.88
2022-08-30T23:01:28.458Z,95641.19
2022-08-30T23:03:57.560Z,95635.59
2022-08-30T23:06:26.642Z,95634.72
2022-08-30T23:08:54.700Z,95629.00
2022-08-30T23:11:22.759Z,95627.38
2022-08-30T23:13:51.807Z,95626.03
2022-08-30T23:16:20.814Z,95630.31
2022-08-30T23:18:48.622Z,95628.69
2022-08-30T23:21:19.050Z,95627.38
2022-08-30T23:24:06.466Z,95624.97
2022-08-30T23:26:51.765Z,95619.34
2022-08-30T23:29:37.521Z,95618.78
2022-08-30T23:32:23.274Z,95617.66
2022-08-30T23:35:08.757Z,95621.72
2022-08-30T23:37:54.536Z,95626.25
2022-08-30T23:40:42.234Z,95619.78
2022-08-30T23:43:28.273Z,95618.72
2022-08-30T23:46:18.921Z,95616.53
2022-08-30T23:49:05.271Z,95622.13
2022-08-30T23:51:50.827Z,95621.56
2022-08-30T23:54:37.146Z,95623.66
2022-08-30T23:57:24.222Z,95620.41
